Time;durP1;ratioP1;P1;durP2;ratioP2;P2;SDS_P1;SDS_P2;PMS_P1;PMS_P2;Temp;Humidity;BMP_temperature;BMP_pressure;BME280_temperature;BME280_humidity;BME280_pressure;Samples;Min_cycle;Max_cycle;Signal;HPM_P1;HPM_P2
2022/12/30 00:01:45;;;;;;;;;9.00;7.25;;;;;8.29;65.95;100891.97;5059460;27;45328;-59
2022/12/30 00:04:11;;;;;;;;;11.00;6.00;;;;;8.23;66.27;100880.63;5075317;28;47188;-59
2022/12/30 00:06:36;;;;;;;;;5.00;5.00;;;;;8.24;66.33;100877.16;5075479;28;45567;-59
2022/12/30 00:09:02;;;;;;;;;10.50;5.75;;;;;8.23;65.99;100876.25;5059854;28;45326;-59
2022/12/30 00:11:30;;;;;;;;;6.50;6.25;;;;;8.23;66.03;100871.03;5059670;28;45256;-59
2022/12/30 00:33:46;;;;;;;;;5.75;3.25;;;;;8.04;65.67;100851.00;5063098;28;45244;-59
2022/12/30 00:36:11;;;;;;;;;12.00;7.25;;;;;8.03;66.17;100857.97;5062838;28;45319;-59
2022/12/30 00:38:37;;;;;;;;;9.75;5.00;;;;;8.01;66.34;100854.47;5062909;28;45217;-59
2022/12/30 00:43:46;;;;;;;;;10.00;6.75;;;;;7.98;66.33;100849.25;5062869;28;45383;-59
2022/12/30 00:46:12;;;;;;;;;6.00;5.25;;;;;7.95;65.97;100842.28;5062405;28;45999;-59
2022/12/30 00:56:49;;;;;;;;;4.50;2.00;;;;;7.76;66.53;100843.19;5062414;28;45510;-59
2022/12/30 00:59:15;;;;;;;;;7.00;4.00;;;;;7.73;66.54;100846.66;5062590;28;45345;-59
2022/12/30 01:01:40;;;;;;;;;7.00;4.00;;;;;7.75;66.71;100846.69;5062282;28;45439;-59
2022/12/30 01:04:06;;;;;;;;;6.00;5.00;;;;;7.76;66.35;100840.56;5062575;28;45387;-59
2022/12/30 01:06:31;;;;;;;;;10.00;6.00;;;;;7.75;66.69;100847.56;5062245;28;45422;-59
2022/12/30 01:08:56;;;;;;;;;9.00;8.25;;;;;7.69;66.75;100829.25;5062477;28;45292;-59
2022/12/30 01:11:22;;;;;;;;;10.75;8.25;;;;;7.72;66.63;100821.41;5077863;27;45765;-59
2022/12/30 01:13:47;;;;;;;;;7.75;6.00;;;;;7.68;66.61;100826.63;5062609;28;45232;-59
2022/12/30 01:16:15;;;;;;;;;7.25;5.75;;;;;7.62;66.84;100815.31;5061910;28;46208;-59
2022/12/30 01:18:40;;;;;;;;;5.25;4.00;;;;;7.59;67.16;100815.28;5062411;28;45395;-59
2022/12/30 01:21:07;;;;;;;;;4.25;4.25;;;;;7.64;67.05;100812.69;5062075;28;45800;-59
2022/12/30 01:23:33;;;;;;;;;6.00;4.75;;;;;7.65;67.01;100812.66;5062149;28;45437;-59
2022/12/30 01:26:01;;;;;;;;;8.75;4.75;;;;;7.65;66.94;100811.81;5061751;28;45387;-59
2022/12/30 01:28:30;;;;;;;;;6.25;5.00;;;;;7.65;66.68;100812.66;5061864;28;45310;-59
2022/12/30 01:30:57;;;;;;;;;7.50;4.00;;;;;7.59;67.11;100815.28;5061751;28;45457;-59
2022/12/30 01:33:22;;;;;;;;;4.00;4.00;;;;;7.60;67.25;100817.03;5061960;28;45283;-59
2022/12/30 01:35:47;;;;;;;;;2.50;2.50;;;;;7.58;67.12;100812.69;5077314;28;46312;-59
2022/12/30 01:38:13;;;;;;;;;6.50;5.25;;;;;7.60;67.17;100800.50;5061948;28;45299;-59
2022/12/30 01:40:39;;;;;;;;;6.50;6.50;;;;;7.60;66.99;100796.13;5061978;28;45485;-59
2022/12/30 01:43:10;;;;;;;;;11.00;5.50;;;;;7.60;66.94;100803.97;5062326;27;45316;-59
2022/12/30 01:45:35;;;;;;;;;9.00;6.00;;;;;7.60;66.98;100810.94;5061556;28;45254;-59
2022/12/30 01:48:08;;;;;;;;;7.00;5.50;;;;;7.56;67.14;100807.47;5061893;28;45248;-59
2022/12/30 01:50:45;;;;;;;;;5.00;5.00;;;;;7.59;66.89;100809.19;5061858;28;45251;-59
2022/12/30 01:53:15;;;;;;;;;8.50;6.00;;;;;7.60;67.29;100811.81;5061442;28;45360;-59
2022/12/30 01:55:53;;;;;;;;;4.75;4.25;;;;;7.55;67.24;100813.56;5061785;28;45348;-59
2022/12/30 01:58:25;;;;;;;;;11.25;6.00;;;;;7.54;67.34;100806.56;5061456;28;45318;-59
2022/12/30 02:00:51;;;;;;;;;5.50;5.00;;;;;7.57;67.39;100803.09;5061390;28;45368;-59
2022/12/30 02:03:17;;;;;;;;;5.50;5.25;;;;;7.52;67.22;100800.50;5061345;28;45363;-59
2022/12/30 02:05:44;;;;;;;;;9.75;4.00;;;;;7.56;67.14;100814.41;5061382;28;46131;-59
2022/12/30 02:08:13;;;;;;;;;9.75;6.00;;;;;7.57;67.37;100809.22;5061613;28;45248;-59
2022/12/30 02:10:42;;;;;;;;;10.25;5.00;;;;;7.56;67.38;100806.56;5061408;28;45375;-59
2022/12/30 02:13:13;;;;;;;;;4.75;4.25;;;;;7.62;67.38;100814.41;5061316;28;45598;-59
2022/12/30 02:16:00;;;;;;;;;9.50;8.00;;;;;7.66;67.39;100816.19;5060910;28;45494;-59
2022/12/30 02:18:41;;;;;;;;;9.00;5.75;;;;;7.63;67.45;100808.31;5061285;28;45306;-59
2022/12/30 02:21:25;;;;;;;;;6.75;5.75;;;;;7.57;67.54;100811.81;5077015;28;45691;-59
2022/12/30 02:24:30;;;;;;;;;8.75;6.00;;;;;7.67;67.62;100817.03;5061230;28;45214;-59
2022/12/30 02:27:33;;;;;;;;;10.50;5.75;;;;;7.61;67.88;100807.44;5052384;28;46148;-59
2022/12/30 02:30:40;;;;;;;;;11.75;8.75;;;;;7.63;67.75;100806.59;5016234;28;45435;-59
2022/12/30 02:33:13;;;;;;;;;12.50;9.00;;;;;7.62;68.54;100806.56;5018707;28;45527;-59
2022/12/30 02:35:39;;;;;;;;;13.75;10.50;;;;;7.62;67.85;100799.59;5054402;28;45231;-59
2022/12/30 02:38:07;;;;;;;;;10.50;8.50;;;;;7.69;68.11;100800.47;5060925;28;45261;-59
2022/12/30 02:46:59;;;;;;;;;8.50;6.00;;;;;7.80;68.48;100787.38;5060449;28;45318;-59
2022/12/30 02:49:26;;;;;;;;;12.75;10.00;;;;;7.74;68.31;100783.00;5059916;28;45232;-59
2022/12/30 02:54:38;;;;;;;;;10.00;8.25;;;;;7.81;68.30;100784.75;5060751;28;45280;-59
2022/12/30 02:57:21;;;;;;;;;13.00;9.75;;;;;7.85;67.97;100776.88;5076171;28;45336;-59
2022/12/30 03:05:54;;;;;;;;;9.25;8.50;;;;;7.84;68.59;100772.56;5060586;28;45335;-59
2022/12/30 03:08:47;;;;;;;;;13.00;11.50;;;;;7.90;68.72;100767.28;5060502;28;45240;-59
2022/12/30 03:11:16;;;;;;;;;8.25;6.25;;;;;7.85;68.70;100764.69;5059954;28;45351;-59
2022/12/30 03:14:15;;;;;;;;;13.50;13.25;;;;;7.89;68.52;100750.72;5060454;28;45320;-59
2022/12/30 03:16:51;;;;;;;;;13.25;10.00;;;;;7.85;68.69;100749.00;5076015;28;45505;-59
2022/12/30 03:19:21;;;;;;;;;12.00;7.25;;;;;7.92;68.52;100747.22;5060223;28;45158;-59
2022/12/30 03:21:50;;;;;;;;;10.25;8.50;;;;;7.90;68.36;100747.22;5060158;28;45595;-59
2022/12/30 03:27:12;;;;;;;;;12.50;7.50;;;;;7.86;68.94;100729.81;5059995;28;45424;-59
2022/12/30 03:30:00;;;;;;;;;12.75;7.50;;;;;7.96;68.75;100738.47;5046766;28;45213;-59
2022/12/30 03:32:27;;;;;;;;;9.25;7.75;;;;;8.00;69.08;100737.59;5059895;28;46383;-59
2022/12/30 03:34:53;;;;;;;;;12.00;7.50;;;;;8.00;68.62;100727.13;5075710;28;45404;-59
2022/12/30 03:37:30;;;;;;;;;9.25;7.00;;;;;8.05;68.85;100741.06;5060128;28;45503;-59
2022/12/30 03:40:04;;;;;;;;;8.75;6.00;;;;;8.01;68.66;100730.63;5060056;28;45378;-59
2022/12/30 03:42:32;;;;;;;;;8.00;5.75;;;;;8.04;68.83;100743.72;5075296;28;47074;-59
2022/12/30 03:44:58;;;;;;;;;8.50;6.50;;;;;8.07;68.89;100734.06;5075299;28;45418;-59
2022/12/30 03:47:24;;;;;;;;;10.75;6.00;;;;;8.03;68.76;100732.34;5059952;28;45309;-59
2022/12/30 03:49:49;;;;;;;;;11.25;6.50;;;;;8.04;69.14;100728.00;5059739;28;45287;-59
2022/12/30 03:52:18;;;;;;;;;9.25;5.00;;;;;7.99;68.78;100714.94;5075197;28;46227;-59
2022/12/30 03:54:44;;;;;;;;;8.25;5.00;;;;;8.05;69.05;100714.91;5059879;28;45480;-59
2022/12/30 03:57:09;;;;;;;;;7.75;5.50;;;;;8.07;69.19;100705.28;5059712;28;45233;-59
2022/12/30 03:59:35;;;;;;;;;2.50;2.50;;;;;8.06;68.58;100703.56;5075270;27;45555;-59
2022/12/30 04:02:00;;;;;;;;;6.50;6.25;;;;;8.09;68.92;100700.06;5061475;28;47000;-59
2022/12/30 04:04:25;;;;;;;;;6.00;5.00;;;;;8.07;69.02;100692.19;5063347;28;45308;-59
2022/12/30 04:06:51;;;;;;;;;4.50;4.50;;;;;8.14;68.94;100688.66;5063447;28;45299;-59
2022/12/30 04:09:16;;;;;;;;;8.00;4.25;;;;;8.12;68.72;100692.19;5063468;28;45382;-59
2022/12/30 04:11:41;;;;;;;;;4.25;3.00;;;;;8.11;68.93;100693.06;5062872;28;45293;-59
2022/12/30 04:14:07;;;;;;;;;6.75;3.00;;;;;8.11;69.36;100685.19;5063292;28;45214;-59
2022/12/30 04:16:32;;;;;;;;;5.00;4.75;;;;;8.14;69.04;100680.81;5063085;28;45292;-59
2022/12/30 04:18:58;;;;;;;;;10.50;5.25;;;;;8.16;69.10;100674.72;5063233;28;45349;-59
2022/12/30 04:21:23;;;;;;;;;8.00;6.00;;;;;8.15;69.39;100671.25;5063014;28;45149;-59
2022/12/30 04:23:49;;;;;;;;;5.00;4.00;;;;;8.22;68.91;100679.91;5063090;28;45226;-59
2022/12/30 04:26:14;;;;;;;;;6.00;5.25;;;;;8.18;69.06;100691.28;5062847;28;45271;-59
2022/12/30 04:28:39;;;;;;;;;4.75;4.00;;;;;8.20;68.93;100690.41;5062934;28;45264;-59
2022/12/30 04:31:05;;;;;;;;;10.00;5.25;;;;;8.13;68.98;100676.47;5062651;28;45227;-59
2022/12/30 04:33:31;;;;;;;;;6.00;5.25;;;;;8.09;68.91;100672.13;5062984;28;45332;-59
2022/12/30 04:35:56;;;;;;;;;7.75;5.50;;;;;8.06;69.29;100668.66;5062952;28;45241;-59
2022/12/30 04:38:21;;;;;;;;;4.50;3.00;;;;;8.06;69.09;100652.94;5062923;28;45315;-59
2022/12/30 04:40:47;;;;;;;;;10.00;4.25;;;;;8.09;69.18;100663.41;5078396;28;47105;-59
2022/12/30 04:43:12;;;;;;;;;12.50;5.00;;;;;8.03;69.07;100664.31;5078267;28;45439;-59
2022/12/30 04:45:38;;;;;;;;;7.00;4.50;;;;;8.09;69.32;100653.81;5078225;28;45462;-59
2022/12/30 04:48:03;;;;;;;;;5.75;5.00;;;;;8.12;69.23;100658.16;5062817;28;45453;-59
2022/12/30 04:50:29;;;;;;;;;8.75;5.25;;;;;8.08;69.39;100645.97;5062343;28;46375;-59
2022/12/30 04:52:54;;;;;;;;;9.75;6.25;;;;;8.11;69.47;100640.69;5062449;28;45302;-59
2022/12/30 04:55:20;;;;;;;;;7.25;5.75;;;;;8.12;69.32;100635.44;5062540;28;45412;-59
2022/12/30 04:57:45;;;;;;;;;10.75;5.00;;;;;8.14;69.08;100628.47;5078118;28;45252;-59
2022/12/30 05:00:11;;;;;;;;;12.25;8.00;;;;;8.18;69.65;100623.22;5060793;27;45351;-59
2022/12/30 05:02:37;;;;;;;;;8.00;6.75;;;;;8.19;69.30;100619.72;5062558;28;45429;-59
2022/12/30 05:05:03;;;;;;;;;10.00;7.00;;;;;8.18;69.50;100607.53;5062384;28;45416;-59
2022/12/30 05:07:28;;;;;;;;;13.00;8.00;;;;;8.17;69.49;100596.16;5062521;28;45295;-59
2022/12/30 05:09:54;;;;;;;;;5.25;5.00;;;;;8.27;69.63;100605.69;5062018;28;46018;-59
2022/12/30 05:12:19;;;;;;;;;5.00;5.00;;;;;8.27;69.40;100603.06;5061715;28;45261;-59
2022/12/30 05:14:45;;;;;;;;;9.75;5.25;;;;;8.21;69.56;100597.88;5062045;28;45450;-59
2022/12/30 05:17:10;;;;;;;;;6.50;5.00;;;;;8.28;69.73;100590.88;5061349;28;45333;-59
2022/12/30 05:19:35;;;;;;;;;6.00;5.00;;;;;8.32;69.36;100587.34;5062262;28;45267;-59
2022/12/30 05:22:01;;;;;;;;;7.25;4.00;;;;;8.31;69.68;100582.97;5062219;28;45158;-59
2022/12/30 05:27:10;;;;;;;;;3.75;3.00;;;;;8.37;69.82;100567.22;5061963;28;45216;-59
2022/12/30 05:29:35;;;;;;;;;4.00;3.50;;;;;8.39;69.53;100573.31;5061704;28;46097;-59
2022/12/30 05:32:01;;;;;;;;;7.00;4.50;;;;;8.39;69.82;100560.22;5061952;28;45220;-59
2022/12/30 05:34:26;;;;;;;;;5.75;4.75;;;;;8.43;69.69;100563.69;5062211;28;45220;-59
2022/12/30 05:36:51;;;;;;;;;6.00;3.25;;;;;8.45;69.81;100552.31;5062117;28;45240;-59
2022/12/30 05:39:16;;;;;;;;;7.75;5.00;;;;;8.49;69.91;100552.31;5061890;28;45567;-59
2022/12/30 05:41:42;;;;;;;;;6.50;4.50;;;;;8.50;69.64;100560.16;5061734;28;45379;-59
2022/12/30 05:44:07;;;;;;;;;7.25;5.50;;;;;8.48;69.82;100550.56;5061684;28;45350;-59
2022/12/30 05:46:33;;;;;;;;;5.00;4.00;;;;;8.45;69.57;100547.09;5061869;28;45531;-59
2022/12/30 05:48:58;;;;;;;;;4.25;3.00;;;;;8.50;69.98;100536.59;5077202;28;46462;-59
2022/12/30 05:51:24;;;;;;;;;5.00;4.00;;;;;8.46;69.92;100516.56;5077206;28;45366;-59
2022/12/30 05:53:49;;;;;;;;;3.25;3.00;;;;;8.57;69.99;100524.31;5061787;28;45265;-59
2022/12/30 05:56:14;;;;;;;;;7.75;5.25;;;;;8.53;69.74;100506.88;5061546;28;45331;-59
2022/12/30 05:58:40;;;;;;;;;3.75;3.50;;;;;8.62;70.09;100515.53;5077137;28;45960;-59
2022/12/30 06:01:06;;;;;;;;;4.25;4.25;;;;;8.59;69.99;100504.19;5061189;28;45306;-59
2022/12/30 06:03:31;;;;;;;;;5.50;5.00;;;;;8.63;70.34;100492.84;5061628;28;45336;-59
2022/12/30 06:05:59;;;;;;;;;7.50;5.50;;;;;8.62;70.10;100486.72;5061794;28;45237;-59
2022/12/30 06:08:25;;;;;;;;;6.00;4.75;;;;;8.68;70.31;100487.53;5076883;28;48269;-59
2022/12/30 06:10:50;;;;;;;;;7.25;6.00;;;;;8.72;69.96;100481.41;5061298;28;45154;-59
2022/12/30 06:13:15;;;;;;;;;6.50;5.25;;;;;8.78;70.12;100476.94;5061047;28;45208;-59
2022/12/30 06:15:40;;;;;;;;;4.50;4.50;;;;;8.76;70.15;100468.22;5061390;28;45441;-59
2022/12/30 06:18:06;;;;;;;;;6.00;5.00;;;;;8.81;70.15;100469.94;5061107;28;45261;-59
2022/12/30 06:20:35;;;;;;;;;4.00;4.00;;;;;8.78;70.07;100455.13;5061611;28;45223;-59
2022/12/30 06:23:01;;;;;;;;;6.25;4.00;;;;;8.87;70.28;100449.78;5061322;28;45495;-59
2022/12/30 06:25:26;;;;;;;;;4.00;3.00;;;;;8.95;70.14;100449.69;5060221;28;45389;-59
2022/12/30 06:27:51;;;;;;;;;5.00;4.00;;;;;8.92;70.27;100440.09;5060833;28;45282;-59
2022/12/30 06:30:17;;;;;;;;;8.25;6.00;;;;;8.94;69.99;100445.31;5076526;28;45205;-59
2022/12/30 06:32:42;;;;;;;;;4.75;4.75;;;;;8.97;70.28;100433.91;5061196;28;45427;-59
2022/12/30 06:35:09;;;;;;;;;7.25;3.00;;;;;8.96;70.48;100437.44;5061079;28;45263;-59
2022/12/30 06:37:34;;;;;;;;;7.00;3.00;;;;;8.91;69.98;100424.41;5060878;28;46152;-59
2022/12/30 06:39:59;;;;;;;;;6.25;3.00;;;;;8.96;70.14;100433.06;5060857;28;45300;-59
2022/12/30 06:42:25;;;;;;;;;4.50;2.50;;;;;8.92;69.97;100427.00;5060904;28;45622;-59
2022/12/30 06:44:50;;;;;;;;;4.00;2.50;;;;;8.98;69.97;100417.31;5060694;28;45653;-59
2022/12/30 06:47:16;;;;;;;;;3.75;2.50;;;;;9.05;70.57;100421.59;5060777;28;45406;-59
2022/12/30 06:49:41;;;;;;;;;7.25;3.25;;;;;9.10;70.12;100410.16;5060841;28;45241;-59
2022/12/30 06:52:06;;;;;;;;;3.25;2.00;;;;;9.07;70.22;100409.34;5060726;28;45217;-59
2022/12/30 06:54:32;;;;;;;;;5.50;4.50;;;;;9.05;70.33;100387.53;5061012;28;45364;-59
2022/12/30 06:56:57;;;;;;;;;2.75;2.00;;;;;9.11;70.57;100384.81;5060371;28;45326;-59
2022/12/30 06:59:22;;;;;;;;;5.25;3.50;;;;;9.15;70.58;100381.25;5060461;28;45271;-59
2022/12/30 07:01:47;;;;;;;;;3.50;3.00;;;;;9.15;70.33;100369.91;5060662;28;45291;-59
2022/12/30 07:04:13;;;;;;;;;5.75;4.75;;;;;9.18;70.28;100369.88;5060537;28;45314;-59
2022/12/30 07:06:38;;;;;;;;;3.00;3.00;;;;;9.19;70.51;100364.59;5060318;28;45429;-59
2022/12/30 07:09:03;;;;;;;;;4.75;2.00;;;;;9.24;70.42;100373.28;5060387;28;45326;-59
2022/12/30 07:11:29;;;;;;;;;3.25;2.00;;;;;9.24;70.30;100348.81;5060333;28;45315;-59
2022/12/30 07:13:54;;;;;;;;;6.00;4.00;;;;;9.26;70.32;100354.91;5060536;28;45346;-59
2022/12/30 07:16:19;;;;;;;;;4.75;3.00;;;;;9.28;70.53;100347.84;5060015;28;45428;-59
2022/12/30 07:18:45;;;;;;;;;8.00;3.25;;;;;9.33;70.60;100332.06;5060528;28;45393;-59
2022/12/30 07:21:10;;;;;;;;;4.25;2.50;;;;;9.36;70.49;100326.78;5060307;28;45509;-59
2022/12/30 07:23:35;;;;;;;;;5.00;3.25;;;;;9.35;70.54;100325.06;5060345;28;45332;-59
2022/12/30 07:26:01;;;;;;;;;3.75;2.00;;;;;9.38;70.33;100325.88;5059846;28;45342;-58
2022/12/30 07:28:26;;;;;;;;;2.00;2.00;;;;;9.38;70.41;100327.59;5060127;28;45307;-59
2022/12/30 07:30:51;;;;;;;;;4.00;3.25;;;;;9.43;70.51;100318.78;5059926;28;45540;-59
2022/12/30 07:33:16;;;;;;;;;2.00;2.00;;;;;9.39;70.17;100322.31;5060311;28;45491;-59
2022/12/30 07:35:42;;;;;;;;;0.75;0.25;;;;;9.41;70.30;100298.72;5059799;28;45240;-59
2022/12/30 07:38:07;;;;;;;;;4.50;2.75;;;;;9.49;70.34;100309.09;5060440;28;45280;-59
2022/12/30 07:40:33;;;;;;;;;4.25;2.75;;;;;9.49;70.31;100311.72;5060064;28;45606;-59
2022/12/30 07:42:58;;;;;;;;;3.00;2.75;;;;;9.47;70.50;100322.25;5059905;28;45157;-59
2022/12/30 07:45:23;;;;;;;;;3.00;2.75;;;;;9.49;70.35;100299.44;5059555;28;47148;-59
2022/12/30 07:47:49;;;;;;;;;4.75;2.50;;;;;9.53;70.12;100292.41;5075564;28;45963;-59
2022/12/30 07:50:14;;;;;;;;;5.00;3.50;;;;;9.49;70.15;100290.72;5059737;28;45337;-59
2022/12/30 07:52:40;;;;;;;;;3.00;1.50;;;;;9.50;70.24;100289.84;5059698;28;45201;-59
2022/12/30 07:55:06;;;;;;;;;3.00;1.25;;;;;9.51;70.39;100292.44;5059756;28;46068;-59
2022/12/30 07:57:31;;;;;;;;;2.25;1.50;;;;;9.51;70.35;100305.53;5059842;28;45227;-59
2022/12/30 07:59:57;;;;;;;;;6.00;4.00;;;;;9.55;70.22;100293.25;5059511;28;45154;-59
2022/12/30 08:02:23;;;;;;;;;2.75;1.25;;;;;9.62;70.16;100297.47;5059740;27;45427;-59
2022/12/30 08:04:48;;;;;;;;;2.25;2.25;;;;;9.56;70.25;100295.84;5075223;28;47178;-59
2022/12/30 08:07:17;;;;;;;;;2.50;1.00;;;;;9.51;70.04;100292.44;5075375;28;45371;-59
2022/12/30 08:09:43;;;;;;;;;2.25;2.00;;;;;9.59;69.99;100287.06;5075203;28;45265;-59
2022/12/30 08:12:09;;;;;;;;;4.25;3.00;;;;;9.59;69.89;100273.94;5059547;28;45514;-59
2022/12/30 08:14:34;;;;;;;;;4.75;2.75;;;;;9.56;70.09;100272.22;5059377;28;45279;-59
2022/12/30 08:17:00;;;;;;;;;2.00;2.00;;;;;9.56;69.79;100264.34;5059683;28;45235;-59
2022/12/30 08:19:26;;;;;;;;;1.75;1.75;;;;;9.58;70.07;100256.44;5059655;28;45232;-59
2022/12/30 08:21:52;;;;;;;;;4.00;3.00;;;;;9.56;70.00;100256.50;5059602;28;45291;-59
2022/12/30 08:24:17;;;;;;;;;2.25;2.25;;;;;9.57;69.91;100220.63;5059123;28;45351;-59
2022/12/30 08:26:42;;;;;;;;;6.00;2.25;;;;;9.62;69.94;100257.28;5059200;28;45324;-59
2022/12/30 08:29:08;;;;;;;;;3.50;3.50;;;;;9.59;69.66;100235.44;5059115;28;45490;-59
2022/12/30 08:31:33;;;;;;;;;4.00;2.00;;;;;9.68;69.74;100244.91;5059410;28;45454;-59
2022/12/30 08:33:58;;;;;;;;;1.00;0.75;;;;;9.61;69.90;100238.06;5059238;28;47248;-59
2022/12/30 08:36:27;;;;;;;;;1.00;1.00;;;;;9.59;69.82;100237.19;5059376;28;45326;-59
2022/12/30 08:38:55;;;;;;;;;2.75;2.50;;;;;9.62;69.64;100234.50;5059467;28;45395;-59
2022/12/30 08:41:31;;;;;;;;;1.00;1.00;;;;;9.58;69.79;100222.34;5058889;28;45237;-59
2022/12/30 08:43:58;;;;;;;;;2.25;1.00;;;;;9.57;69.68;100220.63;5058796;28;45394;-59
2022/12/30 08:46:25;;;;;;;;;4.50;2.50;;;;;9.51;69.85;100208.50;5059181;28;45282;-58
2022/12/30 08:48:51;;;;;;;;;2.00;1.00;;;;;9.49;70.19;100214.66;5078003;27;45285;-58
2022/12/30 08:51:17;;;;;;;;;1.25;0.50;;;;;9.43;69.96;100207.75;5062483;28;45459;-58
2022/12/30 08:53:45;;;;;;;;;2.00;2.00;;;;;9.36;70.13;100191.28;5077620;27;48438;-58
2022/12/30 08:56:15;;;;;;;;;2.00;2.00;;;;;9.33;70.43;100193.09;5062711;28;45219;-58
2022/12/30 08:58:41;;;;;;;;;0.50;0.00;;;;;9.30;70.25;100185.28;5062585;28;45424;-58
2022/12/30 09:01:19;;;;;;;;;3.75;2.50;;;;;9.27;70.26;100184.44;5062264;28;45329;-58
2022/12/30 09:03:45;;;;;;;;;1.50;1.50;;;;;9.20;70.40;100171.47;5062559;28;45286;-58
2022/12/30 09:06:12;;;;;;;;;2.25;2.25;;;;;9.23;70.34;100171.41;5062198;28;45305;-58
2022/12/30 09:08:38;;;;;;;;;3.00;2.00;;;;;9.14;70.27;100172.41;5062567;28;45441;-58
2022/12/30 09:11:11;;;;;;;;;2.00;2.00;;;;;9.19;70.36;100162.72;5061957;28;45277;-58
2022/12/30 09:13:38;;;;;;;;;2.00;2.00;;;;;9.11;70.80;100144.50;5062489;28;45447;-57
2022/12/30 09:16:10;;;;;;;;;1.75;1.75;;;;;9.12;70.33;100142.78;5061764;27;45381;-58
2022/12/30 09:18:38;;;;;;;;;1.00;1.00;;;;;9.08;70.86;100127.97;5062136;28;45321;-58
2022/12/30 09:21:04;;;;;;;;;3.00;3.00;;;;;9.07;70.96;100126.25;5061968;28;45438;-58
2022/12/30 09:23:30;;;;;;;;;3.50;2.50;;;;;9.01;70.63;100118.50;5062056;28;45934;-58
2022/12/30 09:25:56;;;;;;;;;4.25;3.00;;;;;8.99;71.14;100107.16;5061909;28;45347;-58
2022/12/30 09:28:22;;;;;;;;;5.50;4.25;;;;;9.00;71.20;100122.00;5061975;28;45367;-58
2022/12/30 09:30:48;;;;;;;;;3.50;3.50;;;;;8.98;71.37;100100.19;5077378;28;45742;-58
2022/12/30 09:33:14;;;;;;;;;3.75;2.50;;;;;8.94;71.07;100112.47;5060580;28;45556;-58
2022/12/30 09:35:39;;;;;;;;;2.75;2.75;;;;;8.98;71.52;100116.81;5061917;28;45247;-58
2022/12/30 09:38:05;;;;;;;;;3.25;3.00;;;;;8.88;71.75;100105.59;5062225;28;45295;-58
2022/12/30 09:40:58;;;;;;;;;1.00;1.00;;;;;8.97;71.82;100117.69;5062169;28;45555;-58
2022/12/30 09:43:41;;;;;;;;;3.00;3.00;;;;;8.92;71.90;100109.03;5061633;28;46043;-58
2022/12/30 09:46:11;;;;;;;;;2.75;2.50;;;;;8.93;71.85;100113.38;5076971;28;45965;-58
2022/12/30 09:48:52;;;;;;;;;3.50;3.00;;;;;8.98;71.81;100087.09;5061731;28;45461;-58
2022/12/30 09:51:23;;;;;;;;;1.50;1.50;;;;;8.92;72.29;100081.06;5061607;28;45714;-58
2022/12/30 09:53:57;;;;;;;;;2.00;2.00;;;;;8.98;72.02;100103.69;5061375;28;45368;-58
2022/12/30 09:56:30;;;;;;;;;3.00;2.00;;;;;8.96;72.30;100083.66;5061508;28;45433;-58
2022/12/30 09:58:59;;;;;;;;;3.00;3.00;;;;;9.05;72.56;100073.84;5060079;28;45279;-59
2022/12/30 10:01:43;;;;;;;;;3.75;2.50;;;;;9.03;72.45;100087.88;5061324;28;45398;-59
2022/12/30 10:04:15;;;;;;;;;3.00;1.00;;;;;9.07;72.36;100071.22;5061108;28;47301;-59
2022/12/30 10:06:51;;;;;;;;;1.00;1.00;;;;;9.07;72.73;100066.81;5061227;28;45333;-59
2022/12/30 10:09:47;;;;;;;;;1.75;0.50;;;;;9.07;72.51;100045.00;5061565;28;45547;-59
2022/12/30 10:12:24;;;;;;;;;4.00;3.25;;;;;9.15;73.14;100061.44;5061343;28;45420;-59
2022/12/30 10:15:20;;;;;;;;;2.00;1.00;;;;;9.10;73.11;100043.16;5076467;28;48488;-57
2022/12/30 10:18:07;;;;;;;;;2.00;2.00;;;;;9.16;73.00;100033.47;5061038;28;45327;-59
2022/12/30 10:21:10;;;;;;;;;2.00;2.00;;;;;9.18;73.66;100010.69;5061316;28;45222;-57
2022/12/30 10:23:54;;;;;;;;;1.75;1.75;;;;;9.16;73.67;99997.63;5061004;28;45497;-59
2022/12/30 10:26:22;;;;;;;;;1.25;1.00;;;;;9.21;73.73;100002.78;5060704;28;46154;-56
2022/12/30 10:29:01;;;;;;;;;1.00;1.00;;;;;9.22;73.68;99984.41;5073045;28;45244;-59
2022/12/30 10:31:32;;;;;;;;;2.00;1.00;;;;;9.19;73.96;99994.09;5049496;28;45225;-57
2022/12/30 10:34:09;;;;;;;;;1.50;1.50;;;;;9.23;74.11;99964.28;5060891;28;45315;-57
2022/12/30 10:36:43;;;;;;;;;5.25;1.75;;;;;9.29;74.05;99982.50;5060793;28;46307;-56
2022/12/30 10:39:37;;;;;;;;;2.00;0.25;;;;;9.29;74.28;99958.91;5060973;28;45228;-56
2022/12/30 10:42:02;;;;;;;;;2.00;2.00;;;;;9.34;74.61;99964.91;5059059;28;45586;-57
2022/12/30 10:44:36;;;;;;;;;2.00;2.00;;;;;9.36;74.79;99975.41;5060751;28;45511;-59
2022/12/30 10:47:37;;;;;;;;;1.00;1.00;;;;;9.39;75.04;99970.91;5059373;28;48484;-57
2022/12/30 10:50:14;;;;;;;;;1.25;1.25;;;;;9.42;75.10;99959.50;5060478;28;45350;-57
2022/12/30 10:52:40;;;;;;;;;2.50;1.00;;;;;9.57;75.04;99942.56;5060636;28;45516;-57
2022/12/30 10:55:33;;;;;;;;;1.00;1.00;;;;;9.54;74.91;99963.63;5060458;28;45323;-59
2022/12/30 10:58:04;;;;;;;;;2.75;1.00;;;;;9.60;74.86;99953.84;5058749;28;46274;-59
2022/12/30 11:00:32;;;;;;;;;0.75;0.75;;;;;9.63;74.90;99931.94;5060554;28;45245;-59
2022/12/30 11:03:03;;;;;;;;;2.00;2.00;;;;;9.68;74.88;99918.72;5060532;28;45398;-59
2022/12/30 11:05:31;;;;;;;;;2.50;2.50;;;;;9.71;75.37;99930.00;5060708;28;45325;-58
2022/12/30 11:07:59;;;;;;;;;1.00;1.00;;;;;9.78;74.88;99919.38;5060237;28;45418;-58
2022/12/30 11:10:25;;;;;;;;;2.00;1.00;;;;;9.83;75.05;99918.34;5059797;28;45333;-58
2022/12/30 11:15:51;;;;;;;;;0.00;0.00;;;;;9.96;75.04;99882.19;5060222;28;45178;-58
2022/12/30 11:18:18;;;;;;;;;0.00;0.00;;;;;10.00;75.66;99888.19;5060532;28;45220;-58
2022/12/30 11:20:52;;;;;;;;;4.00;2.00;;;;;10.09;75.80;99914.22;5060267;28;45385;-58
2022/12/30 11:23:33;;;;;;;;;2.00;2.00;;;;;10.13;76.04;99886.97;5060568;28;45419;-58
2022/12/30 11:26:01;;;;;;;;;3.00;2.00;;;;;10.22;76.73;99904.25;5059844;28;45482;-59
2022/12/30 11:28:42;;;;;;;;;0.75;0.00;;;;;10.27;76.40;99884.00;5060033;28;46121;-58
2022/12/30 11:31:12;;;;;;;;;0.00;0.00;;;;;10.32;76.97;99882.09;5059799;28;45234;-58
2022/12/30 11:33:48;;;;;;;;;1.00;1.00;;;;;10.42;77.30;99882.75;5060291;28;45330;-58
2022/12/30 11:36:15;;;;;;;;;0.25;0.25;;;;;10.43;77.54;99873.97;5060197;28;45335;-58
2022/12/30 11:38:43;;;;;;;;;0.00;0.00;;;;;10.51;77.54;99873.75;5059919;28;45457;-58
2022/12/30 11:41:18;;;;;;;;;1.50;1.50;;;;;10.63;77.64;99881.31;5059947;28;45241;-58
2022/12/30 11:43:58;;;;;;;;;2.00;0.00;;;;;10.69;77.47;99877.63;5060116;28;45521;-57
2022/12/30 11:46:28;;;;;;;;;1.00;0.00;;;;;10.67;77.77;99840.88;5060125;28;45410;-57
2022/12/30 11:48:59;;;;;;;;;0.00;0.00;;;;;10.69;77.78;99843.47;5059868;28;45278;-58
2022/12/30 11:51:28;;;;;;;;;1.00;1.00;;;;;10.77;77.75;99853.75;5059542;28;45485;-59
2022/12/30 11:54:05;;;;;;;;;0.25;0.25;;;;;10.80;78.08;99822.13;5059916;28;45327;-58
2022/12/30 11:56:30;;;;;;;;;1.00;1.00;;;;;10.81;79.19;99853.63;5059714;28;45517;-58
2022/12/30 11:59:18;;;;;;;;;0.25;0.25;;;;;10.94;78.90;99855.91;5059474;28;46115;-58
2022/12/30 12:01:47;;;;;;;;;0.00;0.00;;;;;10.88;79.37;99852.53;5059258;28;45273;-58
2022/12/30 12:04:38;;;;;;;;;0.00;0.00;;;;;10.87;81.37;99824.53;5059862;28;45490;-58
2022/12/30 12:07:18;;;;;;;;;2.00;1.00;;;;;10.99;79.58;99852.25;5059796;28;45318;-58
2022/12/30 12:09:53;;;;;;;;;1.00;1.00;;;;;11.02;79.66;99844.25;5059505;28;46324;-58
2022/12/30 12:12:23;;;;;;;;;4.00;2.00;;;;;11.06;79.22;99861.63;5075112;28;45291;-58
2022/12/30 12:15:01;;;;;;;;;3.25;1.50;;;;;11.13;78.46;99851.81;5058204;28;45523;-58
2022/12/30 12:17:41;;;;;;;;;0.75;0.75;;;;;11.11;78.95;99847.50;5059680;28;45390;-57
2022/12/30 12:20:19;;;;;;;;;0.25;0.25;;;;;11.19;79.00;99841.13;5059511;28;46222;-58
2022/12/30 12:23:00;;;;;;;;;1.50;1.00;;;;;11.20;78.20;99834.06;5060909;28;45508;-57
2022/12/30 12:25:40;;;;;;;;;0.00;0.00;;;;;11.17;78.62;99847.28;5066190;28;45261;-58
2022/12/30 12:28:10;;;;;;;;;1.00;1.00;;;;;11.28;79.10;99825.94;5058777;28;45328;-58
2022/12/30 12:30:58;;;;;;;;;4.50;3.50;;;;;11.38;78.73;99832.63;5062495;28;46338;-58
2022/12/30 12:33:47;;;;;;;;;2.50;1.75;;;;;11.44;78.75;99828.94;5063350;27;45385;-58
2022/12/30 12:36:44;;;;;;;;;3.00;2.25;;;;;11.45;78.61;99828.88;5063175;28;45307;-58
2022/12/30 12:39:24;;;;;;;;;1.00;1.00;;;;;11.45;78.68;99830.66;5062784;28;45279;-58